createdAt,value
2023-03-13T01:02:38.111Z,97429.47
2023-03-13T01:08:41.785Z,97454.94
2023-03-13T01:11:18.604Z,97469.25
2023-03-13T01:13:52.487Z,97451.28
2023-03-13T01:16:30.778Z,97441.88
2023-03-13T01:21:49.841Z,97458.00
2023-03-13T01:24:23.075Z,97444.22
2023-03-13T01:41:02.158Z,97502.75
2023-03-13T01:43:38.153Z,97481.41
2023-03-13T01:49:20.425Z,97510.91
2023-03-13T01:54:50.902Z,97526.31
2023-03-13T01:57:38.033Z,97560.06
2023-03-13T02:01:05.829Z,97515.41
2023-03-13T02:03:36.355Z,97512.03
2023-03-13T02:06:06.734Z,97488.97
2023-03-13T02:08:39.025Z,97539.59
2023-03-13T02:11:15.542Z,97531.31
2023-03-13T02:13:44.268Z,97488.75
2023-03-13T02:16:12.304Z,97531.03
2023-03-13T02:18:39.820Z,97530.59
2023-03-13T02:21:21.353Z,97561.59
2023-03-13T02:24:08.850Z,97522.00
2023-03-13T02:26:36.154Z,97537.03
2023-03-13T02:29:03.898Z,97557.84
2023-03-13T02:34:10.202Z,97543.06
2023-03-13T02:36:38.023Z,97567.63
2023-03-13T02:39:06.792Z,97581.94
2023-03-13T02:41:35.811Z,97580.81
2023-03-13T02:44:03.113Z,97574.34
2023-03-13T02:46:30.751Z,97552.06
2023-03-13T02:48:59.924Z,97548.28
2023-03-13T02:51:35.000Z,97587.53
2023-03-13T02:54:07.449Z,97561.97
2023-03-13T02:56:38.403Z,97559.31
2023-03-13T02:59:07.619Z,97594.78
2023-03-13T03:01:35.024Z,97596.00
2023-03-13T03:04:02.546Z,97591.84
2023-03-13T03:06:30.008Z,97602.69
2023-03-13T03:08:57.497Z,97614.75
2023-03-13T03:11:24.896Z,97626.09
2023-03-13T03:13:52.310Z,97587.25
2023-03-13T03:16:19.908Z,97585.69
2023-03-13T03:18:47.745Z,97590.16
2023-03-13T03:21:15.384Z,97596.13
2023-03-13T03:23:43.299Z,97619.13
2023-03-13T03:26:10.894Z,97633.97
2023-03-13T03:28:38.451Z,97615.50
2023-03-13T03:31:07.658Z,97610.97
2023-03-13T03:33:35.551Z,97612.50
2023-03-13T03:36:06.107Z,97639.63
2023-03-13T03:38:34.589Z,97650.41
2023-03-13T03:41:02.424Z,97645.41
2023-03-13T03:43:29.781Z,97622.34
2023-03-13T03:45:57.992Z,97641.81
2023-03-13T03:48:25.605Z,97654.97
2023-03-13T03:50:52.951Z,97672.72
2023-03-13T03:53:20.388Z,97668.56
2023-03-13T03:55:47.677Z,97647.56
2023-03-13T03:58:15.632Z,97673.91
2023-03-13T04:00:48.034Z,97686.50
2023-03-13T04:05:49.668Z,97683.44
2023-03-13T04:08:17.363Z,97685.41
2023-03-13T04:10:45.215Z,97691.88
2023-03-13T04:13:13.406Z,97720.59
2023-03-13T04:15:41.954Z,97725.50
2023-03-13T04:18:09.336Z,97697.59
2023-03-13T04:20:37.687Z,97727.03
2023-03-13T04:23:05.061Z,97749.28
2023-03-13T04:25:33.654Z,97738.34
2023-03-13T04:28:01.025Z,97702.53
2023-03-13T04:30:28.473Z,97764.81
2023-03-13T04:32:55.959Z,97756.84
2023-03-13T04:35:23.425Z,97749.25
2023-03-13T04:37:50.897Z,97759.75
2023-03-13T04:40:18.453Z,97784.97
2023-03-13T04:42:49.305Z,97773.66
2023-03-13T04:45:17.372Z,97751.78
2023-03-13T04:47:46.936Z,97767.31
2023-03-13T04:50:14.721Z,97793.75
2023-03-13T04:52:42.116Z,97778.56
2023-03-13T04:55:09.867Z,97778.53
2023-03-13T04:57:37.293Z,97783.84
2023-03-13T05:00:08.507Z,97786.88
2023-03-13T05:05:11.060Z,97814.75
2023-03-13T05:07:38.366Z,97813.66
2023-03-13T05:10:06.796Z,97813.66
2023-03-13T05:12:34.540Z,97795.16
2023-03-13T05:15:02.497Z,97798.97
2023-03-13T05:17:35.137Z,97834.50
2023-03-13T05:20:02.721Z,97820.41
2023-03-13T05:22:30.345Z,97840.03
2023-03-13T05:24:58.124Z,97840.41
2023-03-13T05:27:26.928Z,97825.69
2023-03-13T05:32:34.255Z,97831.00
2023-03-13T05:35:08.049Z,97841.28
2023-03-13T05:37:36.292Z,97824.72
2023-03-13T05:40:05.206Z,97844.38
2023-03-13T05:42:37.285Z,97882.94
2023-03-13T05:45:05.131Z,97853.09
2023-03-13T05:47:33.441Z,97887.72
2023-03-13T05:50:01.073Z,97837.81
2023-03-13T05:52:29.514Z,97880.06
2023-03-13T05:54:59.407Z,97870.72
2023-03-13T05:57:28.059Z,97906.63
2023-03-13T05:59:57.954Z,97898.00
2023-03-13T06:02:25.573Z,97895.38
2023-03-13T06:04:53.688Z,97887.41
2023-03-13T06:07:21.151Z,97906.28
2023-03-13T06:09:51.465Z,97928.94
2023-03-13T06:12:18.927Z,97920.63
2023-03-13T06:14:46.307Z,97905.94
2023-03-13T06:17:16.925Z,97912.38
2023-03-13T06:19:47.739Z,97934.72
2023-03-13T06:22:17.545Z,97889.78
2023-03-13T06:24:46.572Z,97900.38
2023-03-13T06:27:14.042Z,97923.03
2023-03-13T06:29:42.051Z,97915.88
2023-03-13T06:32:10.097Z,97924.50
2023-03-13T06:34:38.375Z,97972.53
2023-03-13T06:37:10.981Z,97957.06
2023-03-13T06:39:38.623Z,97924.94
2023-03-13T06:42:07.516Z,97944.22
2023-03-13T06:44:35.068Z,97959.25
2023-03-13T06:47:03.515Z,97958.47
2023-03-13T06:49:31.330Z,97958.88
2023-03-13T06:51:59.314Z,97953.28
2023-03-13T06:54:26.771Z,97993.34
2023-03-13T06:56:58.361Z,97967.28
2023-03-13T06:59:26.135Z,97970.69
2023-03-13T07:01:54.117Z,97934.78
2023-03-13T07:04:22.267Z,97956.66
2023-03-13T07:06:50.364Z,97976.25
2023-03-13T07:09:21.192Z,98022.28
2023-03-13T07:11:49.955Z,98011.41
2023-03-13T07:14:18.165Z,97986.88
2023-03-13T07:16:46.547Z,97997.13
2023-03-13T07:19:15.561Z,98028.53
2023-03-13T07:21:43.283Z,98011.84
2023-03-13T07:24:11.027Z,98036.72
2023-03-13T07:26:39.180Z,98017.41
2023-03-13T07:29:14.684Z,98038.63
2023-03-13T07:31:42.510Z,98039.31
2023-03-13T07:34:18.627Z,98042.47
2023-03-13T07:36:47.031Z,98025.09
2023-03-13T07:39:15.069Z,98087.06
2023-03-13T08:05:44.272Z,98087.84
2023-03-13T08:08:13.345Z,98116.63
2023-03-13T08:10:41.938Z,98088.28
2023-03-13T08:13:09.512Z,98100.00
2023-03-13T08:15:36.816Z,98124.59
2023-03-13T08:18:04.259Z,98124.56
2023-03-13T08:20:32.608Z,98115.13
2023-03-13T08:23:00.454Z,98121.91
2023-03-13T08:25:30.836Z,98125.69
2023-03-13T08:28:02.487Z,98142.34
2023-03-13T08:30:30.052Z,98151.06
2023-03-13T08:32:57.442Z,98152.19
2023-03-13T08:35:25.172Z,98126.13
2023-03-13T08:37:54.686Z,98157.50
2023-03-13T08:40:22.068Z,98163.53
2023-03-13T08:42:49.489Z,98165.44
2023-03-13T08:48:56.304Z,98208.88
2023-03-13T08:51:26.134Z,98161.94
2023-03-13T08:53:57.093Z,98172.22
2023-03-13T08:56:27.477Z,98172.56
2023-03-13T09:05:14.957Z,98171.13
2023-03-13T09:07:50.662Z,98198.41
2023-03-13T09:10:53.006Z,98212.69
2023-03-13T09:13:21.399Z,98223.31
2023-03-13T09:18:53.892Z,98205.78
2023-03-13T09:24:24.437Z,98224.22
2023-03-13T09:30:23.627Z,98236.66
2023-03-13T09:32:57.688Z,98189.41
2023-03-13T09:35:26.217Z,98190.50
2023-03-13T09:37:56.857Z,98223.97
2023-03-13T09:40:27.843Z,98202.94
2023-03-13T09:54:17.954Z,98249.06
2023-03-13T09:56:57.938Z,98240.59
2023-03-13T10:12:45.015Z,98234.53
2023-03-13T10:23:02.855Z,98290.13
2023-03-13T10:29:34.393Z,98302.88
2023-03-13T10:32:06.039Z,98289.88
2023-03-13T10:34:55.058Z,98306.72
2023-03-13T10:37:36.298Z,98279.69
2023-03-13T10:40:16.973Z,98268.09
2023-03-13T10:42:47.830Z,98283.41
2023-03-13T10:48:40.167Z,98272.50
2023-03-13T10:51:36.143Z,98330.56
2023-03-13T10:54:52.784Z,98291.91
2023-03-13T10:57:25.991Z,98323.81
2023-03-13T11:23:25.258Z,98308.53
2023-03-13T11:33:39.339Z,98381.06
2023-03-13T11:36:23.908Z,98368.13
2023-03-13T11:49:19.951Z,98373.44
2023-03-13T12:05:46.942Z,98380.81
2023-03-13T12:08:30.359Z,98339.84
2023-03-13T12:11:04.627Z,98412.34
2023-03-13T12:13:41.353Z,98397.50
2023-03-13T12:16:17.848Z,98381.50
2023-03-13T12:18:47.776Z,98387.84
2023-03-13T12:21:54.842Z,98407.75
2023-03-13T12:24:32.628Z,98367.38
2023-03-13T12:27:07.008Z,98375.69
2023-03-13T12:29:56.782Z,98426.16
2023-03-13T12:32:29.206Z,98389.34
2023-03-13T12:35:21.802Z,98418.78
2023-03-13T12:38:07.950Z,98416.59
2023-03-13T12:40:47.325Z,98419.97
2023-03-13T12:43:35.796Z,98438.06
2023-03-13T12:46:33.794Z,98424.41
2023-03-13T12:49:22.600Z,98396.53
2023-03-13T12:52:19.664Z,98424.34
2023-03-13T12:55:04.133Z,98455.56
2023-03-13T12:57:54.574Z,98398.91
2023-03-13T13:00:27.282Z,98411.00
2023-03-13T13:03:43.307Z,98461.50
2023-03-13T13:06:18.869Z,98412.44
2023-03-13T13:08:59.873Z,98452.44
2023-03-13T13:14:49.523Z,98466.25
2023-03-13T13:17:28.627Z,98438.25
2023-03-13T13:19:58.660Z,98450.59
2023-03-13T13:22:38.192Z,98476.63
2023-03-13T13:25:11.697Z,98454.16
2023-03-13T13:28:12.910Z,98469.94
2023-03-13T13:31:01.815Z,98456.38
2023-03-13T13:33:34.165Z,98464.06
2023-03-13T13:39:31.303Z,98441.63
2023-03-13T13:41:59.059Z,98477.03
2023-03-13T13:44:30.569Z,98467.97
2023-03-13T13:46:58.978Z,98474.84
2023-03-13T13:49:35.542Z,98490.75
2023-03-13T13:52:02.957Z,98500.38
2023-03-13T13:54:43.276Z,98465.09
2023-03-13T13:57:25.540Z,98437.84
2023-03-13T14:02:39.572Z,98484.75
2023-03-13T14:05:16.115Z,98473.78
2023-03-13T14:07:46.882Z,98482.91
2023-03-13T14:13:21.564Z,98459.28
2023-03-13T14:15:53.549Z,98468.47
2023-03-13T14:18:29.399Z,98482.78
2023-03-13T14:21:02.911Z,98483.22
2023-03-13T14:26:25.016Z,98505.66
2023-03-13T14:34:36.862Z,98467.00
2023-03-13T14:37:46.944Z,98475.72
2023-03-13T14:40:31.961Z,98467.38
2023-03-13T14:43:04.894Z,98485.22
2023-03-13T14:45:46.886Z,98505.00
2023-03-13T14:51:44.838Z,98499.31
2023-03-13T14:54:38.410Z,98509.94
2023-03-13T14:57:23.970Z,98512.97
2023-03-13T14:59:55.162Z,98492.44
2023-03-13T15:02:34.376Z,98513.31
2023-03-13T15:13:40.431Z,98514.78
2023-03-13T15:19:41.185Z,98517.44
2023-03-13T15:33:56.467Z,98558.50
2023-03-13T15:36:40.997Z,98556.59
2023-03-13T15:42:10.046Z,98519.34
2023-03-13T15:44:38.497Z,98593.91
2023-03-13T15:59:37.531Z,98608.31
2023-03-13T16:05:25.847Z,98586.56
2023-03-13T16:07:59.566Z,98624.31
2023-03-13T16:13:44.520Z,98603.19
2023-03-13T16:16:25.519Z,98636.94
2023-03-13T16:18:54.061Z,98662.00
2023-03-13T16:21:33.640Z,98680.50
2023-03-13T16:24:02.107Z,98670.59
2023-03-13T16:26:32.364Z,98657.97
2023-03-13T16:29:00.324Z,98687.72
2023-03-13T17:35:30.457Z,98771.50
2023-03-13T17:59:19.818Z,98800.81
2023-03-13T18:01:49.672Z,98821.13
2023-03-13T18:04:44.410Z,98820.81
2023-03-13T18:14:32.284Z,98813.94
2023-03-13T18:17:01.654Z,98837.31
2023-03-13T18:32:20.281Z,98846.41
2023-03-13T18:51:26.736Z,98878.94
2023-03-13T20:52:57.751Z,99003.22
2023-03-13T21:14:39.177Z,99024.81
2023-03-13T21:17:17.853Z,99000.25
2023-03-13T21:20:48.365Z,99046.75
2023-03-13T21:23:16.048Z,99017.72
2023-03-13T21:25:44.766Z,99009.38
